createdAt,value
2018-01-13T00:01:09.281Z,27.00
2018-01-13T00:03:36.769Z,25.43
2018-01-13T00:06:04.259Z,27.07
2018-01-13T00:08:31.742Z,25.37
2018-01-13T00:11:00.021Z,26.63
2018-01-13T00:13:28.272Z,28.07
2018-01-13T00:15:55.755Z,29.20
2018-01-13T00:18:23.281Z,25.10
2018-01-13T00:20:50.766Z,26.13
2018-01-13T00:23:18.280Z,26.33
2018-01-13T00:25:45.795Z,32.77
2018-01-13T00:28:14.079Z,29.20
2018-01-13T00:30:41.595Z,27.60
2018-01-13T00:33:09.081Z,28.23
2018-01-13T00:35:36.656Z,30.73
2018-01-13T00:38:04.154Z,28.63
2018-01-13T00:40:31.657Z,31.00
2018-01-13T00:42:59.945Z,33.50
2018-01-13T00:45:27.444Z,34.70
2018-01-13T00:47:54.936Z,31.03
2018-01-13T00:50:22.454Z,30.87
2018-01-13T00:52:49.959Z,29.33
2018-01-13T00:55:18.220Z,32.93
2018-01-13T00:57:45.716Z,29.03
2018-01-13T01:00:13.225Z,29.90
2018-01-13T01:02:40.725Z,30.50
2018-01-13T01:05:08.196Z,31.70
2018-01-13T01:07:36.529Z,28.57
2018-01-13T01:10:04.015Z,29.37
2018-01-13T01:12:31.508Z,29.40
2018-01-13T01:14:59.005Z,27.80
2018-01-13T01:17:26.514Z,27.53
2018-01-13T01:19:54.016Z,29.30
2018-01-13T01:22:21.540Z,29.40
2018-01-13T01:24:49.356Z,24.27
2018-01-13T01:27:16.842Z,26.93
2018-01-13T01:29:44.354Z,28.00
2018-01-13T01:32:11.877Z,28.40
2018-01-13T01:34:40.155Z,27.00
2018-01-13T01:37:08.509Z,27.70
2018-01-13T01:39:36.032Z,29.87
2018-01-13T01:42:04.316Z,27.57
2018-01-13T01:44:32.691Z,25.80
2018-01-13T01:47:00.150Z,24.37
2018-01-13T01:49:27.715Z,25.90
2018-01-13T01:51:55.974Z,22.00
2018-01-13T01:54:23.501Z,19.50
2018-01-13T01:56:51.784Z,21.10
2018-01-13T01:59:19.254Z,22.70
2018-01-13T02:01:46.739Z,23.23
2018-01-13T02:04:15.045Z,20.97
2018-01-13T02:06:42.593Z,22.37
2018-01-13T02:09:10.126Z,19.87
2018-01-13T02:11:37.640Z,20.63
2018-01-13T02:14:05.143Z,21.10
2018-01-13T02:16:33.400Z,20.07
2018-01-13T02:19:00.932Z,22.80
2018-01-13T02:21:28.436Z,20.30
2018-01-13T02:23:55.917Z,20.40
2018-01-13T02:26:23.426Z,20.27
2018-01-13T02:28:50.914Z,18.93
2018-01-13T02:31:19.213Z,20.20
2018-01-13T02:33:46.707Z,20.00
2018-01-13T02:36:14.277Z,16.27
2018-01-13T02:38:41.793Z,18.30
2018-01-13T02:41:09.302Z,17.63
2018-01-13T02:43:36.847Z,16.57
2018-01-13T02:46:04.344Z,19.40
2018-01-13T02:48:32.645Z,17.80
2018-01-13T02:51:00.889Z,18.50
2018-01-13T02:53:28.424Z,17.70
2018-01-13T02:55:55.949Z,16.17
2018-01-13T02:58:23.471Z,15.73
2018-01-13T03:00:51.726Z,14.70
2018-01-13T03:03:19.235Z,16.27
2018-01-13T03:05:46.738Z,15.67
2018-01-13T03:08:14.322Z,16.60
2018-01-13T03:10:42.634Z,16.00
2018-01-13T03:13:10.131Z,16.23
2018-01-13T03:15:39.162Z,14.13
2018-01-13T03:18:06.692Z,16.47
2018-01-13T03:20:35.456Z,18.47
2018-01-13T03:23:02.966Z,16.83
2018-01-13T03:25:30.468Z,15.87
2018-01-13T03:27:58.013Z,17.47
2018-01-13T03:30:25.514Z,18.10
2018-01-13T03:32:53.825Z,17.53
2018-01-13T03:35:21.360Z,15.37
2018-01-13T03:37:48.879Z,15.17
2018-01-13T03:40:17.185Z,14.33
2018-01-13T03:42:45.469Z,13.77
2018-01-13T03:45:13.727Z,15.13
2018-01-13T03:47:41.262Z,14.27
2018-01-13T03:50:09.005Z,15.80
2018-01-13T03:52:36.530Z,15.50
2018-01-13T03:55:04.046Z,15.53
2018-01-13T03:57:32.343Z,15.73
2018-01-13T04:00:00.633Z,16.70
2018-01-13T04:02:28.127Z,17.30
2018-01-13T04:04:55.907Z,15.63
2018-01-13T04:07:23.513Z,15.70
2018-01-13T04:09:51.147Z,16.07
2018-01-13T04:12:18.615Z,17.43
2018-01-13T04:14:46.118Z,15.90
2018-01-13T04:17:13.618Z,16.50
2018-01-13T04:19:41.115Z,16.60
2018-01-13T04:22:09.439Z,15.93
2018-01-13T04:24:36.943Z,17.87
2018-01-13T04:27:05.249Z,16.67
2018-01-13T04:29:32.777Z,15.83
2018-01-13T04:32:00.322Z,18.00
2018-01-13T04:34:28.609Z,17.43
2018-01-13T04:36:56.919Z,16.90
2018-01-13T04:39:24.450Z,17.30
2018-01-13T04:41:51.992Z,16.90
2018-01-13T04:44:19.568Z,13.60
2018-01-13T04:46:47.843Z,17.47
2018-01-13T04:49:16.126Z,18.67
2018-01-13T04:51:43.610Z,16.33
2018-01-13T04:54:11.482Z,17.97
2018-01-13T04:56:38.987Z,14.60
2018-01-13T04:59:06.491Z,16.87
2018-01-13T05:01:34.022Z,15.00
2018-01-13T05:04:01.541Z,16.17
2018-01-13T05:06:29.061Z,15.07
2018-01-13T05:08:56.585Z,15.60
2018-01-13T05:11:24.111Z,17.17
2018-01-13T05:13:51.684Z,14.53
2018-01-13T05:16:19.168Z,17.73
2018-01-13T05:18:47.455Z,17.67
2018-01-13T05:21:15.013Z,14.90
2018-01-13T05:23:43.267Z,17.20
2018-01-13T05:26:10.828Z,17.50
2018-01-13T05:28:38.338Z,15.63
2018-01-13T05:31:05.843Z,17.87
2018-01-13T05:33:34.128Z,16.50
2018-01-13T05:36:02.414Z,15.90
2018-01-13T05:38:29.927Z,15.47
2018-01-13T05:40:57.423Z,17.40
2018-01-13T05:43:24.936Z,15.83
2018-01-13T05:45:52.471Z,14.23
2018-01-13T05:48:20.067Z,14.60
2018-01-13T05:50:48.380Z,15.93
2018-01-13T05:53:16.631Z,12.63
2018-01-13T05:55:44.227Z,16.50
2018-01-13T05:58:11.731Z,17.67
2018-01-13T06:00:39.278Z,17.60
2018-01-13T06:03:06.817Z,12.80
2018-01-13T06:05:34.378Z,16.50
2018-01-13T06:08:01.902Z,16.07
2018-01-13T06:10:30.212Z,17.53
2018-01-13T06:12:57.733Z,14.40
2018-01-13T06:15:25.266Z,14.10
2018-01-13T06:17:52.807Z,13.10
2018-01-13T06:20:20.383Z,14.87
2018-01-13T06:22:50.168Z,15.90
2018-01-13T06:25:17.773Z,17.17
2018-01-13T06:27:46.131Z,12.13
2018-01-13T06:30:13.666Z,14.43
2018-01-13T06:32:41.258Z,10.43
2018-01-13T06:35:09.373Z,12.30
2018-01-13T06:37:36.866Z,12.80
2018-01-13T06:40:04.443Z,13.57
2018-01-13T06:42:31.930Z,15.13
2018-01-13T06:45:00.994Z,17.10
2018-01-13T06:47:28.524Z,16.13
2018-01-13T06:49:56.967Z,17.43
2018-01-13T06:52:26.041Z,17.97
2018-01-13T06:54:53.758Z,16.57
2018-01-13T06:57:23.751Z,14.50
2018-01-13T06:59:51.556Z,17.33
2018-01-13T07:02:19.055Z,15.67
2018-01-13T07:04:47.323Z,17.10
2018-01-13T07:07:14.845Z,11.83
2018-01-13T07:09:42.361Z,15.13
2018-01-13T07:12:09.905Z,16.27
2018-01-13T07:14:37.460Z,15.10
2018-01-13T07:17:04.994Z,14.77
2018-01-13T07:19:32.523Z,13.80
2018-01-13T07:22:00.040Z,16.20
2018-01-13T07:24:27.602Z,12.70
2018-01-13T07:26:55.146Z,14.10
2018-01-13T07:29:23.447Z,17.90
2018-01-13T07:31:51.750Z,16.33
2018-01-13T07:34:19.276Z,16.60
2018-01-13T07:36:46.890Z,14.07
2018-01-13T07:39:14.458Z,15.57
2018-01-13T07:41:43.327Z,13.80
2018-01-13T07:44:14.151Z,14.40
2018-01-13T07:46:41.722Z,14.50
2018-01-13T07:49:09.337Z,16.50
2018-01-13T07:51:36.887Z,14.90
2018-01-13T07:54:07.421Z,12.77
2018-01-13T07:56:34.899Z,15.43
2018-01-13T07:59:02.395Z,14.40
2018-01-13T08:01:29.904Z,15.03
2018-01-13T08:03:57.391Z,14.80
2018-01-13T08:06:24.901Z,14.10
2018-01-13T08:08:59.104Z,14.60
2018-01-13T08:11:26.656Z,15.20
2018-01-13T08:13:54.198Z,14.53
2018-01-13T08:16:21.754Z,16.23
2018-01-13T08:18:49.315Z,15.80
2018-01-13T08:21:16.831Z,15.30
2018-01-13T08:23:44.318Z,16.50
2018-01-13T08:26:11.817Z,16.30
2018-01-13T08:28:39.319Z,18.87
2018-01-13T08:31:07.571Z,16.57
2018-01-13T08:33:35.108Z,14.40
2018-01-13T08:36:02.591Z,16.40
2018-01-13T08:38:30.123Z,13.90
2018-01-13T08:40:57.622Z,15.10
2018-01-13T08:43:25.167Z,13.37
2018-01-13T08:45:52.667Z,14.80
2018-01-13T08:48:20.172Z,13.53
2018-01-13T08:50:47.689Z,15.40
2018-01-13T08:53:15.202Z,16.10
2018-01-13T08:55:42.730Z,15.50
2018-01-13T08:58:10.215Z,13.90
2018-01-13T09:00:38.482Z,12.13
2018-01-13T09:03:06.782Z,11.70
2018-01-13T09:05:34.307Z,14.37
2018-01-13T09:08:01.801Z,12.20
2018-01-13T09:10:29.312Z,10.93
2018-01-13T09:12:56.830Z,8.37
2018-01-13T09:15:24.338Z,11.80
2018-01-13T09:17:51.861Z,15.37
2018-01-13T09:20:19.348Z,12.60
2018-01-13T09:22:46.876Z,13.90
2018-01-13T09:25:14.382Z,11.90
2018-01-13T09:27:42.911Z,11.10
2018-01-13T09:30:10.467Z,9.17
2018-01-13T09:32:37.995Z,7.93
2018-01-13T09:35:05.508Z,9.37
2018-01-13T09:37:32.994Z,8.00
2018-01-13T09:40:01.567Z,12.20
2018-01-13T09:42:29.083Z,12.10
2018-01-13T09:44:56.598Z,12.60
2018-01-13T09:47:24.450Z,12.37
2018-01-13T09:49:52.366Z,12.93
2018-01-13T09:52:19.932Z,11.20
2018-01-13T09:54:47.452Z,14.40
2018-01-13T09:57:15.000Z,12.60
2018-01-13T09:59:43.283Z,12.97
2018-01-13T10:02:11.571Z,11.57
2018-01-13T10:04:39.844Z,14.40
2018-01-13T10:07:07.396Z,13.00
2018-01-13T10:09:35.650Z,13.80
2018-01-13T10:12:03.154Z,11.10
2018-01-13T10:14:30.660Z,11.07
2018-01-13T10:16:58.192Z,12.10
2018-01-13T10:19:25.695Z,6.53
2018-01-13T10:21:53.210Z,8.17
2018-01-13T10:24:20.733Z,10.47
2018-01-13T10:26:48.220Z,10.57
2018-01-13T10:29:15.703Z,9.10
2018-01-13T10:31:43.230Z,10.13
2018-01-13T10:34:10.729Z,8.93
2018-01-13T10:36:39.099Z,8.83
2018-01-13T10:39:06.599Z,9.77
2018-01-13T10:41:34.086Z,10.57
2018-01-13T10:44:01.614Z,10.00
2018-01-13T10:46:29.152Z,9.73
2018-01-13T10:48:56.642Z,9.87
2018-01-13T10:51:24.152Z,11.17
2018-01-13T10:53:51.671Z,8.60
2018-01-13T10:56:19.190Z,10.70
2018-01-13T10:58:47.480Z,9.83
2018-01-13T11:01:15.748Z,8.63
2018-01-13T11:03:44.022Z,11.10
2018-01-13T11:06:11.497Z,8.77
2018-01-13T11:08:38.998Z,10.40
2018-01-13T11:11:06.556Z,9.40
2018-01-13T11:13:34.047Z,9.77
2018-01-13T11:16:01.537Z,11.73
2018-01-13T11:18:29.075Z,11.60
2018-01-13T11:20:56.627Z,9.07
2018-01-13T11:23:24.189Z,11.83
2018-01-13T11:25:51.757Z,12.30
2018-01-13T11:28:19.317Z,11.17
2018-01-13T11:30:47.061Z,11.37
2018-01-13T11:33:14.586Z,9.43
2018-01-13T11:35:44.179Z,10.07
2018-01-13T11:38:11.666Z,10.80
2018-01-13T11:40:39.200Z,9.77
2018-01-13T11:43:06.700Z,10.10
2018-01-13T11:45:34.242Z,10.77
2018-01-13T11:48:01.819Z,11.67
2018-01-13T11:50:30.089Z,9.63
2018-01-13T11:52:57.590Z,9.60
2018-01-13T11:55:25.086Z,9.63
2018-01-13T11:57:52.653Z,10.63
2018-01-13T12:00:20.184Z,9.23
2018-01-13T12:02:47.799Z,11.07
2018-01-13T12:05:15.379Z,11.23
2018-01-13T12:07:42.898Z,11.13
2018-01-13T12:10:10.401Z,12.20
2018-01-13T12:12:37.943Z,9.77
2018-01-13T12:15:05.477Z,11.83
2018-01-13T12:17:33.006Z,11.70
2018-01-13T12:20:00.522Z,11.83
2018-01-13T12:22:28.332Z,12.60
2018-01-13T12:24:55.833Z,11.60
2018-01-13T12:27:25.038Z,10.70
2018-01-13T12:29:54.307Z,11.23
2018-01-13T12:32:22.601Z,11.30
2018-01-13T12:34:50.467Z,12.73
2018-01-13T12:37:17.910Z,14.17
2018-01-13T12:39:45.413Z,13.70
2018-01-13T12:42:12.932Z,12.90
2018-01-13T12:44:40.423Z,13.17
2018-01-13T12:47:08.527Z,12.13
2018-01-13T12:49:36.011Z,12.87
2018-01-13T12:52:03.523Z,13.67
2018-01-13T12:54:31.026Z,12.30
2018-01-13T12:56:58.568Z,12.60
2018-01-13T12:59:26.077Z,10.70
2018-01-13T13:01:53.564Z,11.90
2018-01-13T13:04:21.061Z,13.23
2018-01-13T13:06:48.567Z,10.90
2018-01-13T13:09:16.064Z,10.57
2018-01-13T13:11:43.852Z,12.37
2018-01-13T13:14:12.174Z,10.77
2018-01-13T13:16:39.677Z,11.30
2018-01-13T13:19:07.242Z,12.43
2018-01-13T13:21:34.763Z,11.03
2018-01-13T13:24:02.605Z,11.10
2018-01-13T13:26:30.124Z,10.80
2018-01-13T13:28:57.659Z,10.10
2018-01-13T13:31:27.568Z,10.63
2018-01-13T13:33:55.077Z,10.40
2018-01-13T13:36:22.623Z,11.33
2018-01-13T13:38:50.912Z,10.07
2018-01-13T13:41:18.406Z,10.50
2018-01-13T13:43:45.912Z,10.83
2018-01-13T13:46:14.173Z,10.30
2018-01-13T13:48:41.715Z,8.50
2018-01-13T13:51:09.230Z,10.00
2018-01-13T13:53:37.025Z,9.87
2018-01-13T13:56:04.528Z,9.70
2018-01-13T13:58:32.014Z,10.13
2018-01-13T14:01:22.123Z,9.30
2018-01-13T14:03:27.075Z,9.67
2018-01-13T14:05:54.591Z,10.10
2018-01-13T14:08:22.104Z,11.50
2018-01-13T14:10:49.584Z,9.57
2018-01-13T14:13:17.855Z,10.83
2018-01-13T14:15:46.165Z,12.00
2018-01-13T14:18:13.662Z,10.43
2018-01-13T14:20:41.173Z,10.60
2018-01-13T14:23:08.680Z,10.00
2018-01-13T14:25:36.208Z,10.90
2018-01-13T14:28:03.708Z,11.00
2018-01-13T14:30:31.211Z,10.87
2018-01-13T14:32:58.740Z,9.80
2018-01-13T14:35:26.428Z,12.00
2018-01-13T14:37:54.222Z,11.37
2018-01-13T14:40:21.745Z,11.90
2018-01-13T14:42:49.264Z,11.90
2018-01-13T14:45:16.766Z,11.87
2018-01-13T14:47:44.587Z,11.00
2018-01-13T14:50:12.159Z,11.10
2018-01-13T14:52:40.425Z,9.70
2018-01-13T14:55:07.956Z,11.53
2018-01-13T14:57:35.475Z,10.30
2018-01-13T15:00:02.988Z,10.60
2018-01-13T15:02:30.529Z,10.53
2018-01-13T15:04:58.797Z,10.93
2018-01-13T15:07:26.319Z,9.60
2018-01-13T15:09:54.040Z,8.13
2018-01-13T15:12:21.549Z,10.37
2018-01-13T15:14:49.074Z,10.90
2018-01-13T15:17:16.612Z,8.27
2018-01-13T15:19:44.200Z,10.40
2018-01-13T15:22:11.664Z,10.40
2018-01-13T15:24:39.938Z,8.30
2018-01-13T15:27:08.196Z,12.03
2018-01-13T15:29:36.486Z,10.27
2018-01-13T15:32:04.025Z,12.10
2018-01-13T15:34:31.537Z,10.67
2018-01-13T15:36:59.050Z,11.13
2018-01-13T15:39:29.477Z,12.30
2018-01-13T15:41:58.268Z,12.03
2018-01-13T15:44:26.032Z,11.83
2018-01-13T15:46:53.753Z,10.70
2018-01-13T15:49:21.483Z,13.13
2018-01-13T15:51:49.315Z,9.83
2018-01-13T15:54:17.158Z,10.83
2018-01-13T15:56:44.923Z,11.20
2018-01-13T15:59:12.426Z,10.83
2018-01-13T16:01:39.929Z,9.83
2018-01-13T16:04:07.429Z,9.40
2018-01-13T16:06:35.709Z,12.53
2018-01-13T16:09:03.219Z,11.27
2018-01-13T16:11:30.753Z,9.70
2018-01-13T16:13:58.305Z,10.40
2018-01-13T16:16:25.820Z,10.10
2018-01-13T16:18:53.375Z,9.67
2018-01-13T16:21:20.948Z,9.30
2018-01-13T16:23:48.525Z,9.50
2018-01-13T16:26:16.780Z,10.97
2018-01-13T16:28:44.273Z,10.90
2018-01-13T16:31:11.821Z,10.27
2018-01-13T16:33:39.340Z,10.97
2018-01-13T16:36:06.842Z,10.77
2018-01-13T16:38:34.333Z,11.23
2018-01-13T16:41:01.859Z,9.03
2018-01-13T16:43:29.374Z,8.53
2018-01-13T16:45:56.871Z,10.97
2018-01-13T16:48:24.387Z,10.97
2018-01-13T16:50:52.657Z,10.90
2018-01-13T16:53:20.180Z,10.37
2018-01-13T16:55:47.676Z,10.60
2018-01-13T16:58:15.852Z,10.17
2018-01-13T17:00:43.380Z,13.53
2018-01-13T17:03:10.893Z,9.23
2018-01-13T17:05:39.170Z,10.07
2018-01-13T17:08:07.454Z,11.77
2018-01-13T17:10:35.001Z,12.23
2018-01-13T17:13:02.662Z,10.30
2018-01-13T17:15:30.158Z,9.50
2018-01-13T17:17:58.442Z,11.77
2018-01-13T17:20:25.941Z,10.13
2018-01-13T17:22:53.493Z,13.83
2018-01-13T17:25:21.002Z,13.00
2018-01-13T17:27:48.581Z,9.60
2018-01-13T17:30:16.101Z,10.63
2018-01-13T17:32:43.654Z,11.97
2018-01-13T17:35:11.241Z,10.33
2018-01-13T17:37:39.499Z,11.20
2018-01-13T17:40:08.768Z,11.50
2018-01-13T17:42:36.726Z,11.10
2018-01-13T17:45:04.261Z,11.17
2018-01-13T17:47:31.834Z,10.03
2018-01-13T17:49:59.402Z,10.40
2018-01-13T17:52:27.381Z,11.33
2018-01-13T17:54:54.878Z,11.00
2018-01-13T17:57:22.387Z,11.10
2018-01-13T17:59:50.674Z,9.43
2018-01-13T18:02:18.196Z,9.63
2018-01-13T18:04:45.708Z,11.07
2018-01-13T18:07:13.202Z,11.40
2018-01-13T18:09:40.690Z,10.80
2018-01-13T18:12:08.183Z,8.60
2018-01-13T18:14:36.461Z,9.50
2018-01-13T18:17:04.741Z,8.30
2018-01-13T18:19:33.082Z,11.80
2018-01-13T18:22:00.598Z,12.07
2018-01-13T18:24:28.140Z,10.93
2018-01-13T18:26:55.655Z,11.23
2018-01-13T18:29:23.142Z,11.07
2018-01-13T18:31:50.655Z,10.57
2018-01-13T18:34:18.168Z,10.53
2018-01-13T18:36:46.422Z,9.63
2018-01-13T18:39:13.932Z,11.97
2018-01-13T18:41:41.441Z,10.30
2018-01-13T18:44:08.944Z,11.90
2018-01-13T18:46:36.438Z,12.17
2018-01-13T18:49:03.938Z,11.40
2018-01-13T18:51:32.231Z,9.80
2018-01-13T18:54:00.623Z,12.90
2018-01-13T18:56:28.171Z,12.40
2018-01-13T18:58:55.710Z,12.73
2018-01-13T19:01:23.273Z,13.90
2018-01-13T19:03:50.846Z,13.23
2018-01-13T19:06:18.417Z,12.00
2018-01-13T19:08:45.939Z,11.10
2018-01-13T19:11:14.204Z,12.90
2018-01-13T19:13:41.713Z,11.60
2018-01-13T19:16:09.260Z,12.60
2018-01-13T19:18:36.760Z,11.33
2018-01-13T19:21:04.260Z,13.63
2018-01-13T19:23:31.740Z,12.60
2018-01-13T19:25:59.250Z,13.03
2018-01-13T19:28:26.763Z,10.40
2018-01-13T19:30:54.272Z,11.63
2018-01-13T19:33:22.593Z,13.23
2018-01-13T19:35:50.108Z,12.10
2018-01-13T19:38:17.635Z,13.97
2018-01-13T19:40:45.146Z,11.97
2018-01-13T19:43:12.650Z,14.30
2018-01-13T19:45:40.163Z,13.83
2018-01-13T19:48:07.674Z,12.70
2018-01-13T19:50:35.186Z,11.70
2018-01-13T19:53:02.743Z,13.40
2018-01-13T19:55:30.272Z,13.97
2018-01-13T19:57:57.776Z,14.00
2018-01-13T20:00:25.287Z,13.77
2018-01-13T20:02:52.838Z,10.07
2018-01-13T20:05:20.783Z,9.40
2018-01-13T20:07:48.301Z,14.27
2018-01-13T20:10:15.811Z,10.67
2018-01-13T20:12:43.301Z,13.43
2018-01-13T20:15:10.833Z,12.37
2018-01-13T20:17:38.461Z,11.80
2018-01-13T20:20:05.974Z,12.43
2018-01-13T20:22:33.498Z,12.30
2018-01-13T20:25:00.995Z,11.77
2018-01-13T20:27:28.581Z,13.10
2018-01-13T20:29:56.120Z,13.27
2018-01-13T20:32:23.642Z,12.80
2018-01-13T20:34:51.539Z,11.07
2018-01-13T20:37:19.307Z,14.17
2018-01-13T20:39:46.825Z,12.70
2018-01-13T20:42:14.330Z,13.00
2018-01-13T20:44:42.585Z,11.70
2018-01-13T20:47:10.583Z,12.47
2018-01-13T20:49:38.079Z,13.90
2018-01-13T20:52:05.580Z,11.27
2018-01-13T20:54:34.245Z,13.23
2018-01-13T20:57:01.898Z,11.27
2018-01-13T20:59:30.225Z,14.00
2018-01-13T21:01:59.563Z,12.93
2018-01-13T21:04:27.813Z,12.60
2018-01-13T21:06:55.384Z,8.13
2018-01-13T21:09:22.854Z,15.37
2018-01-13T21:11:50.409Z,15.80
2018-01-13T21:14:17.908Z,15.73
2018-01-13T21:16:45.439Z,14.17
2018-01-13T21:19:12.947Z,13.00
2018-01-13T21:21:40.459Z,13.50
2018-01-13T21:24:08.017Z,13.40
2018-01-13T21:26:35.523Z,11.30
2018-01-13T21:29:03.059Z,11.13
2018-01-13T21:31:30.537Z,11.90
2018-01-13T21:33:58.035Z,13.00
2018-01-13T21:36:25.544Z,12.80
2018-01-13T21:38:53.802Z,15.53
2018-01-13T21:41:21.333Z,14.50
2018-01-13T21:43:48.819Z,14.90
2018-01-13T21:46:16.301Z,14.00
2018-01-13T21:48:44.557Z,13.23
2018-01-13T21:51:12.028Z,7.50
2018-01-13T21:53:39.520Z,13.50
2018-01-13T21:56:06.999Z,12.10
2018-01-13T21:58:35.244Z,9.70
2018-01-13T22:01:02.736Z,12.97
2018-01-13T22:03:30.220Z,9.80
2018-01-13T22:05:57.747Z,13.60
2018-01-13T22:08:25.242Z,12.30
2018-01-13T22:10:52.766Z,13.07
2018-01-13T22:13:20.257Z,14.27
2018-01-13T22:15:48.502Z,13.30
2018-01-13T22:18:15.996Z,11.83
2018-01-13T22:20:44.256Z,12.50
2018-01-13T22:23:11.755Z,12.13
2018-01-13T22:25:39.278Z,11.27
2018-01-13T22:28:06.757Z,12.27
2018-01-13T22:30:35.029Z,12.43
2018-01-13T22:33:02.509Z,11.80
2018-01-13T22:35:29.992Z,12.30
2018-01-13T22:37:57.503Z,11.27
2018-01-13T22:40:24.988Z,12.40
2018-01-13T22:42:52.492Z,12.40
2018-01-13T22:45:19.969Z,9.97
2018-01-13T22:47:47.460Z,11.67
2018-01-13T22:50:14.971Z,14.20
2018-01-13T22:52:42.425Z,9.07
2018-01-13T22:55:10.154Z,11.27
2018-01-13T22:57:37.647Z,11.13
2018-01-13T23:00:05.178Z,12.17
2018-01-13T23:02:32.664Z,12.40
2018-01-13T23:05:00.934Z,9.13
2018-01-13T23:07:28.475Z,13.10
2018-01-13T23:09:56.020Z,11.30
2018-01-13T23:12:23.561Z,13.40
2018-01-13T23:14:51.913Z,12.10
2018-01-13T23:17:19.375Z,11.53
2018-01-13T23:19:46.873Z,10.93
2018-01-13T23:22:14.360Z,12.07
2018-01-13T23:24:41.838Z,12.97
2018-01-13T23:27:21.898Z,12.17
2018-01-13T23:29:49.375Z,14.13
2018-01-13T23:32:16.887Z,10.40
2018-01-13T23:34:44.393Z,10.40
2018-01-13T23:37:11.873Z,10.63
2018-01-13T23:39:39.362Z,10.10
2018-01-13T23:42:06.849Z,12.20
2018-01-13T23:44:34.366Z,9.90
2018-01-13T23:47:01.854Z,11.37
2018-01-13T23:49:29.410Z,12.87
2018-01-13T23:51:56.974Z,10.97
2018-01-13T23:54:25.223Z,13.27
2018-01-13T23:56:52.719Z,14.30
2018-01-13T23:59:20.217Z,12.40
